< < Back
Terminal Aerodrome Forecast


Current Version              Previous Versions:   1  2  3  4  5  6  7  8  9  

Terminal Aerodrome Forecast

789
FTUS42 KFFC 210536
TAFMCN
TAF
KMCN 210536Z 2106/2206 06006KT 4SM BR OVC004
     FM211500 07006KT 5SM BR OVC009
     FM211900 08006KT P6SM VCSH OVC015
     FM220000 08005KT 6SM -SHRA BR OVC020
     FM220300 10005KT 5SM -SHRA BR OVC010=

Latest METAR

356
SAUS80 KWBC 211100 CCA
MTRMCN
METAR KMCN 211053Z AUTO 05008KT 3/4SM BR VV002 09/09 A3018 RMK AO2
SLP219 T00940094 TSNO


USA.gov is the U.S. government's official web portal to all federal, state and local government web resources and services.